sensor_id;sensor_type;location;lat;lon;timestamp;P1;durP1;ratioP1;P2;durP2;ratioP2
18793;SDS011;29610;49.022;12.114;2023-04-15T00:02:39;15.97;;;8.17;;
18793;SDS011;29610;49.022;12.114;2023-04-15T00:05:29;14.73;;;8.23;;
18793;SDS011;29610;49.022;12.114;2023-04-15T00:08:18;16.37;;;8.40;;
18793;SDS011;29610;49.022;12.114;2023-04-15T00:11:07;14.53;;;7.97;;
18793;SDS011;29610;49.022;12.114;2023-04-15T00:13:56;14.57;;;7.63;;
18793;SDS011;29610;49.022;12.114;2023-04-15T00:16:46;13.77;;;7.90;;
18793;SDS011;29610;49.022;12.114;2023-04-15T00:19:42;13.97;;;8.73;;
18793;SDS011;29610;49.022;12.114;2023-04-15T00:22:31;13.33;;;7.50;;
18793;SDS011;29610;49.022;12.114;2023-04-15T00:25:20;15.27;;;7.60;;
18793;SDS011;29610;49.022;12.114;2023-04-15T00:28:09;14.10;;;7.00;;
18793;SDS011;29610;49.022;12.114;2023-04-15T00:30:58;12.63;;;7.57;;
18793;SDS011;29610;49.022;12.114;2023-04-15T00:33:47;15.70;;;7.10;;
18793;SDS011;29610;49.022;12.114;2023-04-15T00:36:37;12.20;;;7.33;;
18793;SDS011;29610;49.022;12.114;2023-04-15T00:39:26;12.53;;;7.63;;
18793;SDS011;29610;49.022;12.114;2023-04-15T00:42:15;13.73;;;6.37;;
18793;SDS011;29610;49.022;12.114;2023-04-15T00:45:06;11.13;;;5.97;;
18793;SDS011;29610;49.022;12.114;2023-04-15T00:47:56;12.93;;;7.07;;
18793;SDS011;29610;49.022;12.114;2023-04-15T00:50:45;13.70;;;6.70;;
18793;SDS011;29610;49.022;12.114;2023-04-15T00:53:35;12.63;;;6.57;;
18793;SDS011;29610;49.022;12.114;2023-04-15T00:56:24;11.13;;;5.53;;
18793;SDS011;29610;49.022;12.114;2023-04-15T00:59:16;12.10;;;6.13;;
18793;SDS011;29610;49.022;12.114;2023-04-15T01:02:05;10.90;;;6.60;;
18793;SDS011;29610;49.022;12.114;2023-04-15T01:04:55;10.60;;;5.87;;
18793;SDS011;29610;49.022;12.114;2023-04-15T01:07:45;11.30;;;6.10;;
18793;SDS011;29610;49.022;12.114;2023-04-15T01:10:36;13.63;;;6.07;;
18793;SDS011;29610;49.022;12.114;2023-04-15T01:13:26;13.57;;;6.10;;
18793;SDS011;29610;49.022;12.114;2023-04-15T01:16:15;9.83;;;5.20;;
18793;SDS011;29610;49.022;12.114;2023-04-15T01:19:06;11.40;;;6.20;;
18793;SDS011;29610;49.022;12.114;2023-04-15T01:21:58;9.50;;;5.40;;
18793;SDS011;29610;49.022;12.114;2023-04-15T01:24:50;12.40;;;6.30;;
18793;SDS011;29610;49.022;12.114;2023-04-15T01:27:52;9.80;;;5.50;;
18793;SDS011;29610;49.022;12.114;2023-04-15T01:30:41;9.67;;;5.87;;
18793;SDS011;29610;49.022;12.114;2023-04-15T01:33:30;10.83;;;5.93;;
18793;SDS011;29610;49.022;12.114;2023-04-15T01:36:38;10.27;;;6.13;;
18793;SDS011;29610;49.022;12.114;2023-04-15T01:39:26;11.43;;;5.43;;
18793;SDS011;29610;49.022;12.114;2023-04-15T01:42:15;10.37;;;5.80;;
18793;SDS011;29610;49.022;12.114;2023-04-15T01:45:08;11.20;;;6.70;;
18793;SDS011;29610;49.022;12.114;2023-04-15T01:47:59;10.83;;;6.20;;
18793;SDS011;29610;49.022;12.114;2023-04-15T01:50:51;11.27;;;5.73;;
18793;SDS011;29610;49.022;12.114;2023-04-15T01:53:44;12.53;;;6.83;;
18793;SDS011;29610;49.022;12.114;2023-04-15T01:56:34;12.60;;;5.70;;
18793;SDS011;29610;49.022;12.114;2023-04-15T01:59:24;11.27;;;5.80;;
18793;SDS011;29610;49.022;12.114;2023-04-15T02:02:16;11.67;;;6.33;;
18793;SDS011;29610;49.022;12.114;2023-04-15T02:05:06;11.10;;;6.27;;
18793;SDS011;29610;49.022;12.114;2023-04-15T02:07:58;12.53;;;6.33;;
18793;SDS011;29610;49.022;12.114;2023-04-15T02:10:48;10.30;;;5.90;;
18793;SDS011;29610;49.022;12.114;2023-04-15T02:13:38;11.07;;;5.33;;
18793;SDS011;29610;49.022;12.114;2023-04-15T02:16:28;12.70;;;6.67;;
18793;SDS011;29610;49.022;12.114;2023-04-15T02:19:20;9.13;;;5.50;;
18793;SDS011;29610;49.022;12.114;2023-04-15T02:22:10;10.03;;;5.23;;
18793;SDS011;29610;49.022;12.114;2023-04-15T02:25:07;9.87;;;5.40;;
18793;SDS011;29610;49.022;12.114;2023-04-15T02:27:58;12.00;;;6.03;;
18793;SDS011;29610;49.022;12.114;2023-04-15T02:30:49;10.80;;;5.43;;
18793;SDS011;29610;49.022;12.114;2023-04-15T02:33:40;11.90;;;6.00;;
18793;SDS011;29610;49.022;12.114;2023-04-15T02:36:32;11.47;;;6.03;;
18793;SDS011;29610;49.022;12.114;2023-04-15T02:39:22;9.93;;;5.90;;
18793;SDS011;29610;49.022;12.114;2023-04-15T02:42:12;9.07;;;5.10;;
18793;SDS011;29610;49.022;12.114;2023-04-15T02:45:03;10.73;;;6.37;;
18793;SDS011;29610;49.022;12.114;2023-04-15T02:47:55;13.27;;;5.80;;
18793;SDS011;29610;49.022;12.114;2023-04-15T02:50:46;9.47;;;5.40;;
18793;SDS011;29610;49.022;12.114;2023-04-15T02:53:38;10.70;;;6.10;;
18793;SDS011;29610;49.022;12.114;2023-04-15T02:56:29;10.00;;;4.90;;
18793;SDS011;29610;49.022;12.114;2023-04-15T02:59:19;13.60;;;6.10;;
18793;SDS011;29610;49.022;12.114;2023-04-15T03:02:10;11.47;;;6.80;;
18793;SDS011;29610;49.022;12.114;2023-04-15T03:05:00;12.20;;;6.53;;
18793;SDS011;29610;49.022;12.114;2023-04-15T03:07:51;11.40;;;6.47;;
18793;SDS011;29610;49.022;12.114;2023-04-15T03:10:43;14.77;;;6.70;;
18793;SDS011;29610;49.022;12.114;2023-04-15T03:13:33;12.07;;;6.60;;
18793;SDS011;29610;49.022;12.114;2023-04-15T03:16:30;15.00;;;6.37;;
18793;SDS011;29610;49.022;12.114;2023-04-15T03:19:21;11.80;;;6.67;;
18793;SDS011;29610;49.022;12.114;2023-04-15T03:22:15;13.00;;;7.73;;
18793;SDS011;29610;49.022;12.114;2023-04-15T03:25:06;15.97;;;7.03;;
18793;SDS011;29610;49.022;12.114;2023-04-15T03:28:00;12.87;;;6.70;;
18793;SDS011;29610;49.022;12.114;2023-04-15T03:30:51;13.23;;;7.20;;
18793;SDS011;29610;49.022;12.114;2023-04-15T03:33:41;17.70;;;8.80;;
18793;SDS011;29610;49.022;12.114;2023-04-15T03:36:31;17.10;;;8.17;;
18793;SDS011;29610;49.022;12.114;2023-04-15T03:39:22;15.50;;;8.90;;
18793;SDS011;29610;49.022;12.114;2023-04-15T03:42:12;14.17;;;8.50;;
18793;SDS011;29610;49.022;12.114;2023-04-15T03:45:03;14.00;;;7.93;;
18793;SDS011;29610;49.022;12.114;2023-04-15T03:47:55;14.90;;;8.53;;
18793;SDS011;29610;49.022;12.114;2023-04-15T03:51:03;14.77;;;7.70;;
18793;SDS011;29610;49.022;12.114;2023-04-15T03:53:53;18.43;;;9.57;;
18793;SDS011;29610;49.022;12.114;2023-04-15T03:56:44;19.80;;;9.37;;
18793;SDS011;29610;49.022;12.114;2023-04-15T03:59:34;14.43;;;9.27;;
18793;SDS011;29610;49.022;12.114;2023-04-15T04:02:26;15.30;;;8.40;;
18793;SDS011;29610;49.022;12.114;2023-04-15T04:05:16;15.03;;;8.47;;
18793;SDS011;29610;49.022;12.114;2023-04-15T04:08:06;14.47;;;8.40;;
18793;SDS011;29610;49.022;12.114;2023-04-15T04:10:56;16.10;;;8.90;;
18793;SDS011;29610;49.022;12.114;2023-04-15T04:13:47;16.40;;;8.97;;
18793;SDS011;29610;49.022;12.114;2023-04-15T04:16:37;16.67;;;9.90;;
18793;SDS011;29610;49.022;12.114;2023-04-15T04:19:29;17.10;;;9.30;;
18793;SDS011;29610;49.022;12.114;2023-04-15T04:22:21;16.80;;;8.97;;
18793;SDS011;29610;49.022;12.114;2023-04-15T04:25:12;16.77;;;8.97;;
18793;SDS011;29610;49.022;12.114;2023-04-15T04:28:02;17.87;;;8.90;;
18793;SDS011;29610;49.022;12.114;2023-04-15T04:30:52;16.23;;;9.00;;
18793;SDS011;29610;49.022;12.114;2023-04-15T04:33:42;16.07;;;9.37;;
18793;SDS011;29610;49.022;12.114;2023-04-15T04:36:34;17.17;;;9.03;;
18793;SDS011;29610;49.022;12.114;2023-04-15T04:39:24;20.73;;;10.53;;
18793;SDS011;29610;49.022;12.114;2023-04-15T04:42:14;17.70;;;9.80;;
18793;SDS011;29610;49.022;12.114;2023-04-15T04:45:05;16.77;;;8.80;;
18793;SDS011;29610;49.022;12.114;2023-04-15T04:47:56;15.73;;;8.80;;
18793;SDS011;29610;49.022;12.114;2023-04-15T04:50:46;16.07;;;9.23;;
18793;SDS011;29610;49.022;12.114;2023-04-15T04:53:38;16.30;;;8.87;;
18793;SDS011;29610;49.022;12.114;2023-04-15T04:56:30;18.67;;;9.40;;
18793;SDS011;29610;49.022;12.114;2023-04-15T04:59:21;15.47;;;8.60;;
18793;SDS011;29610;49.022;12.114;2023-04-15T05:02:11;14.50;;;7.60;;
18793;SDS011;29610;49.022;12.114;2023-04-15T05:05:02;15.20;;;8.50;;
18793;SDS011;29610;49.022;12.114;2023-04-15T05:07:53;14.93;;;8.23;;
18793;SDS011;29610;49.022;12.114;2023-04-15T05:10:44;15.27;;;8.77;;
18793;SDS011;29610;49.022;12.114;2023-04-15T05:13:35;22.30;;;8.97;;
18793;SDS011;29610;49.022;12.114;2023-04-15T05:16:26;17.93;;;9.37;;
18793;SDS011;29610;49.022;12.114;2023-04-15T05:19:16;20.13;;;8.60;;
18793;SDS011;29610;49.022;12.114;2023-04-15T05:22:06;16.00;;;8.53;;
18793;SDS011;29610;49.022;12.114;2023-04-15T05:24:56;15.07;;;8.23;;
18793;SDS011;29610;49.022;12.114;2023-04-15T05:27:48;14.10;;;7.90;;
18793;SDS011;29610;49.022;12.114;2023-04-15T05:30:38;18.20;;;8.20;;
18793;SDS011;29610;49.022;12.114;2023-04-15T05:33:29;14.07;;;7.53;;
18793;SDS011;29610;49.022;12.114;2023-04-15T05:36:19;15.80;;;8.13;;
18793;SDS011;29610;49.022;12.114;2023-04-15T05:39:10;13.30;;;6.63;;
18793;SDS011;29610;49.022;12.114;2023-04-15T05:42:00;13.60;;;7.23;;
18793;SDS011;29610;49.022;12.114;2023-04-15T05:44:52;14.70;;;7.50;;
18793;SDS011;29610;49.022;12.114;2023-04-15T05:47:42;14.70;;;8.33;;
18793;SDS011;29610;49.022;12.114;2023-04-15T05:50:32;15.90;;;7.17;;
18793;SDS011;29610;49.022;12.114;2023-04-15T05:53:23;11.43;;;6.60;;
18793;SDS011;29610;49.022;12.114;2023-04-15T05:56:13;13.53;;;6.80;;
18793;SDS011;29610;49.022;12.114;2023-04-15T05:59:03;14.93;;;7.10;;
18793;SDS011;29610;49.022;12.114;2023-04-15T06:01:55;12.53;;;6.60;;
18793;SDS011;29610;49.022;12.114;2023-04-15T06:04:45;12.77;;;7.00;;
18793;SDS011;29610;49.022;12.114;2023-04-15T06:07:35;16.47;;;7.33;;
18793;SDS011;29610;49.022;12.114;2023-04-15T06:10:26;14.30;;;6.80;;
18793;SDS011;29610;49.022;12.114;2023-04-15T06:13:16;13.10;;;6.87;;
18793;SDS011;29610;49.022;12.114;2023-04-15T06:16:06;14.60;;;7.57;;
18793;SDS011;29610;49.022;12.114;2023-04-15T06:18:58;12.87;;;6.73;;
18793;SDS011;29610;49.022;12.114;2023-04-15T06:21:48;11.13;;;6.03;;
18793;SDS011;29610;49.022;12.114;2023-04-15T06:24:38;12.20;;;6.67;;
18793;SDS011;29610;49.022;12.114;2023-04-15T06:27:28;12.30;;;6.60;;
18793;SDS011;29610;49.022;12.114;2023-04-15T06:30:19;13.87;;;6.43;;
18793;SDS011;29610;49.022;12.114;2023-04-15T06:33:11;11.60;;;6.40;;
18793;SDS011;29610;49.022;12.114;2023-04-15T06:36:03;12.83;;;6.10;;
18793;SDS011;29610;49.022;12.114;2023-04-15T06:38:53;13.53;;;7.27;;
18793;SDS011;29610;49.022;12.114;2023-04-15T06:41:43;11.60;;;6.17;;
18793;SDS011;29610;49.022;12.114;2023-04-15T06:44:33;11.90;;;6.30;;
18793;SDS011;29610;49.022;12.114;2023-04-15T06:47:24;11.63;;;6.20;;
18793;SDS011;29610;49.022;12.114;2023-04-15T06:50:14;11.70;;;6.40;;
18793;SDS011;29610;49.022;12.114;2023-04-15T06:53:06;12.20;;;5.77;;
18793;SDS011;29610;49.022;12.114;2023-04-15T06:55:56;10.37;;;5.43;;
18793;SDS011;29610;49.022;12.114;2023-04-15T06:58:46;11.20;;;5.60;;
18793;SDS011;29610;49.022;12.114;2023-04-15T07:01:36;10.07;;;5.33;;
18793;SDS011;29610;49.022;12.114;2023-04-15T07:04:26;9.80;;;4.80;;
18793;SDS011;29610;49.022;12.114;2023-04-15T07:07:17;11.57;;;6.30;;
18793;SDS011;29610;49.022;12.114;2023-04-15T07:10:09;10.10;;;5.03;;
18793;SDS011;29610;49.022;12.114;2023-04-15T07:13:00;9.20;;;4.63;;
18793;SDS011;29610;49.022;12.114;2023-04-15T07:15:50;9.03;;;4.30;;
18793;SDS011;29610;49.022;12.114;2023-04-15T07:18:40;9.23;;;4.50;;
18793;SDS011;29610;49.022;12.114;2023-04-15T07:21:31;8.80;;;4.70;;
18793;SDS011;29610;49.022;12.114;2023-04-15T07:24:21;9.70;;;4.70;;
18793;SDS011;29610;49.022;12.114;2023-04-15T07:27:15;7.67;;;3.93;;
18793;SDS011;29610;49.022;12.114;2023-04-15T07:30:05;8.33;;;4.43;;
18793;SDS011;29610;49.022;12.114;2023-04-15T07:32:57;10.07;;;4.80;;
18793;SDS011;29610;49.022;12.114;2023-04-15T07:35:48;8.97;;;4.80;;
18793;SDS011;29610;49.022;12.114;2023-04-15T07:38:38;8.27;;;4.20;;
18793;SDS011;29610;49.022;12.114;2023-04-15T07:41:28;7.53;;;3.70;;
18793;SDS011;29610;49.022;12.114;2023-04-15T07:44:20;8.50;;;2.90;;
18793;SDS011;29610;49.022;12.114;2023-04-15T07:47:11;15.13;;;4.27;;
18793;SDS011;29610;49.022;12.114;2023-04-15T07:50:01;7.83;;;3.77;;
18793;SDS011;29610;49.022;12.114;2023-04-15T07:52:52;11.20;;;3.97;;
18793;SDS011;29610;49.022;12.114;2023-04-15T07:55:42;7.40;;;3.40;;
18793;SDS011;29610;49.022;12.114;2023-04-15T07:58:32;7.40;;;3.50;;
18793;SDS011;29610;49.022;12.114;2023-04-15T08:01:24;9.63;;;3.93;;
18793;SDS011;29610;49.022;12.114;2023-04-15T08:04:14;11.33;;;3.60;;
18793;SDS011;29610;49.022;12.114;2023-04-15T08:07:05;8.97;;;3.90;;
18793;SDS011;29610;49.022;12.114;2023-04-15T08:09:55;7.90;;;3.30;;
18793;SDS011;29610;49.022;12.114;2023-04-15T08:12:45;7.20;;;3.37;;
18793;SDS011;29610;49.022;12.114;2023-04-15T08:15:36;7.30;;;3.53;;
18793;SDS011;29610;49.022;12.114;2023-04-15T08:18:28;7.70;;;3.37;;
18793;SDS011;29610;49.022;12.114;2023-04-15T08:21:18;8.90;;;3.17;;
18793;SDS011;29610;49.022;12.114;2023-04-15T08:24:09;6.13;;;2.40;;
18793;SDS011;29610;49.022;12.114;2023-04-15T08:27:00;7.13;;;3.20;;
18793;SDS011;29610;49.022;12.114;2023-04-15T08:29:53;8.13;;;3.50;;
18793;SDS011;29610;49.022;12.114;2023-04-15T08:32:44;8.23;;;3.20;;
18793;SDS011;29610;49.022;12.114;2023-04-15T08:35:36;7.50;;;3.73;;
18793;SDS011;29610;49.022;12.114;2023-04-15T08:38:26;7.00;;;3.30;;
18793;SDS011;29610;49.022;12.114;2023-04-15T08:41:19;7.93;;;3.27;;
18793;SDS011;29610;49.022;12.114;2023-04-15T08:44:13;8.03;;;3.13;;
18793;SDS011;29610;49.022;12.114;2023-04-15T08:47:06;8.53;;;3.23;;
18793;SDS011;29610;49.022;12.114;2023-04-15T08:49:58;7.70;;;3.43;;
18793;SDS011;29610;49.022;12.114;2023-04-15T08:52:54;8.23;;;3.33;;
18793;SDS011;29610;49.022;12.114;2023-04-15T08:55:50;6.80;;;3.53;;
18793;SDS011;29610;49.022;12.114;2023-04-15T08:58:44;7.00;;;2.90;;
18793;SDS011;29610;49.022;12.114;2023-04-15T09:01:36;6.83;;;2.80;;
18793;SDS011;29610;49.022;12.114;2023-04-15T09:04:27;7.90;;;2.70;;
18793;SDS011;29610;49.022;12.114;2023-04-15T09:07:18;6.30;;;2.60;;
18793;SDS011;29610;49.022;12.114;2023-04-15T09:10:10;6.67;;;2.37;;
18793;SDS011;29610;49.022;12.114;2023-04-15T09:13:01;7.60;;;3.30;;
18793;SDS011;29610;49.022;12.114;2023-04-15T09:15:52;6.77;;;2.70;;
18793;SDS011;29610;49.022;12.114;2023-04-15T09:18:42;5.90;;;2.40;;
18793;SDS011;29610;49.022;12.114;2023-04-15T09:21:32;7.27;;;2.90;;
18793;SDS011;29610;49.022;12.114;2023-04-15T09:24:23;6.60;;;2.90;;
18793;SDS011;29610;49.022;12.114;2023-04-15T09:27:16;5.90;;;2.73;;
18793;SDS011;29610;49.022;12.114;2023-04-15T09:30:07;6.23;;;2.17;;
18793;SDS011;29610;49.022;12.114;2023-04-15T09:33:00;6.13;;;2.20;;
18793;SDS011;29610;49.022;12.114;2023-04-15T09:35:56;6.50;;;2.47;;
18793;SDS011;29610;49.022;12.114;2023-04-15T09:38:53;6.87;;;2.10;;
18793;SDS011;29610;49.022;12.114;2023-04-15T09:41:44;7.23;;;2.27;;
18793;SDS011;29610;49.022;12.114;2023-04-15T09:44:36;5.60;;;2.17;;
18793;SDS011;29610;49.022;12.114;2023-04-15T09:47:28;6.63;;;2.57;;
18793;SDS011;29610;49.022;12.114;2023-04-15T09:50:19;6.90;;;2.73;;
18793;SDS011;29610;49.022;12.114;2023-04-15T09:53:10;6.00;;;2.27;;
18793;SDS011;29610;49.022;12.114;2023-04-15T09:56:05;6.37;;;2.40;;
18793;SDS011;29610;49.022;12.114;2023-04-15T09:58:57;6.60;;;2.57;;
18793;SDS011;29610;49.022;12.114;2023-04-15T10:01:49;6.50;;;2.40;;
18793;SDS011;29610;49.022;12.114;2023-04-15T10:04:40;6.57;;;2.97;;
18793;SDS011;29610;49.022;12.114;2023-04-15T10:07:30;6.00;;;2.27;;
18793;SDS011;29610;49.022;12.114;2023-04-15T10:10:22;7.23;;;2.93;;
18793;SDS011;29610;49.022;12.114;2023-04-15T10:13:15;5.97;;;2.50;;
18793;SDS011;29610;49.022;12.114;2023-04-15T10:16:09;5.63;;;1.90;;
18793;SDS011;29610;49.022;12.114;2023-04-15T10:19:04;5.47;;;1.83;;
18793;SDS011;29610;49.022;12.114;2023-04-15T10:21:57;6.40;;;2.27;;
18793;SDS011;29610;49.022;12.114;2023-04-15T10:24:48;6.00;;;2.03;;
18793;SDS011;29610;49.022;12.114;2023-04-15T10:27:40;5.90;;;2.47;;
18793;SDS011;29610;49.022;12.114;2023-04-15T10:30:32;5.87;;;1.63;;
18793;SDS011;29610;49.022;12.114;2023-04-15T10:33:22;5.80;;;1.80;;
18793;SDS011;29610;49.022;12.114;2023-04-15T10:36:21;5.60;;;1.93;;
18793;SDS011;29610;49.022;12.114;2023-04-15T10:42:33;8.37;;;2.87;;
18793;SDS011;29610;49.022;12.114;2023-04-15T10:45:24;5.30;;;1.70;;
18793;SDS011;29610;49.022;12.114;2023-04-15T10:48:16;5.57;;;1.80;;
18793;SDS011;29610;49.022;12.114;2023-04-15T10:51:07;8.40;;;1.30;;
18793;SDS011;29610;49.022;12.114;2023-04-15T10:53:59;5.20;;;1.60;;
18793;SDS011;29610;49.022;12.114;2023-04-15T10:56:50;5.00;;;1.60;;
18793;SDS011;29610;49.022;12.114;2023-04-15T10:59:58;4.93;;;1.30;;
18793;SDS011;29610;49.022;12.114;2023-04-15T11:02:59;5.63;;;1.50;;
18793;SDS011;29610;49.022;12.114;2023-04-15T11:05:59;6.20;;;1.93;;
18793;SDS011;29610;49.022;12.114;2023-04-15T11:09:00;5.07;;;1.23;;
18793;SDS011;29610;49.022;12.114;2023-04-15T11:12:06;6.00;;;1.67;;
18793;SDS011;29610;49.022;12.114;2023-04-15T11:14:57;4.50;;;1.07;;
18793;SDS011;29610;49.022;12.114;2023-04-15T11:17:48;5.03;;;1.50;;
18793;SDS011;29610;49.022;12.114;2023-04-15T11:20:40;5.50;;;1.40;;
18793;SDS011;29610;49.022;12.114;2023-04-15T11:23:36;4.93;;;1.40;;
18793;SDS011;29610;49.022;12.114;2023-04-15T11:26:34;5.50;;;1.50;;
18793;SDS011;29610;49.022;12.114;2023-04-15T11:29:27;5.10;;;1.60;;
18793;SDS011;29610;49.022;12.114;2023-04-15T11:32:20;5.30;;;1.50;;
18793;SDS011;29610;49.022;12.114;2023-04-15T11:35:10;4.70;;;1.20;;
18793;SDS011;29610;49.022;12.114;2023-04-15T11:38:02;4.60;;;1.03;;
18793;SDS011;29610;49.022;12.114;2023-04-15T11:40:53;4.60;;;1.00;;
18793;SDS011;29610;49.022;12.114;2023-04-15T11:43:45;4.77;;;1.17;;
18793;SDS011;29610;49.022;12.114;2023-04-15T11:46:35;4.70;;;1.10;;
18793;SDS011;29610;49.022;12.114;2023-04-15T11:49:25;5.57;;;1.57;;
18793;SDS011;29610;49.022;12.114;2023-04-15T11:52:16;4.87;;;1.10;;
18793;SDS011;29610;49.022;12.114;2023-04-15T11:55:06;4.50;;;1.10;;
18793;SDS011;29610;49.022;12.114;2023-04-15T11:58:10;5.20;;;1.00;;
18793;SDS011;29610;49.022;12.114;2023-04-15T12:01:04;4.83;;;1.33;;
18793;SDS011;29610;49.022;12.114;2023-04-15T12:03:54;4.80;;;1.27;;
18793;SDS011;29610;49.022;12.114;2023-04-15T12:06:46;6.20;;;1.20;;
18793;SDS011;29610;49.022;12.114;2023-04-15T12:09:36;5.33;;;1.30;;
18793;SDS011;29610;49.022;12.114;2023-04-15T12:12:26;5.10;;;1.20;;
18793;SDS011;29610;49.022;12.114;2023-04-15T12:15:16;4.70;;;1.40;;
18793;SDS011;29610;49.022;12.114;2023-04-15T12:18:17;4.97;;;1.27;;
18793;SDS011;29610;49.022;12.114;2023-04-15T12:21:08;5.17;;;1.50;;
18793;SDS011;29610;49.022;12.114;2023-04-15T12:23:58;4.90;;;1.30;;
18793;SDS011;29610;49.022;12.114;2023-04-15T12:26:51;5.07;;;1.30;;
18793;SDS011;29610;49.022;12.114;2023-04-15T12:29:43;5.20;;;1.40;;
18793;SDS011;29610;49.022;12.114;2023-04-15T12:32:33;5.63;;;1.33;;
18793;SDS011;29610;49.022;12.114;2023-04-15T12:35:25;4.87;;;1.20;;
18793;SDS011;29610;49.022;12.114;2023-04-15T12:38:14;5.20;;;1.40;;
18793;SDS011;29610;49.022;12.114;2023-04-15T12:41:03;5.00;;;1.40;;
18793;SDS011;29610;49.022;12.114;2023-04-15T12:43:52;4.83;;;1.40;;
18793;SDS011;29610;49.022;12.114;2023-04-15T12:46:42;5.23;;;1.37;;
18793;SDS011;29610;49.022;12.114;2023-04-15T12:49:33;4.73;;;1.20;;
18793;SDS011;29610;49.022;12.114;2023-04-15T12:52:25;5.10;;;1.50;;
18793;SDS011;29610;49.022;12.114;2023-04-15T12:55:16;4.80;;;1.27;;
18793;SDS011;29610;49.022;12.114;2023-04-15T12:58:05;4.77;;;1.30;;
18793;SDS011;29610;49.022;12.114;2023-04-15T13:00:59;5.10;;;1.10;;
18793;SDS011;29610;49.022;12.114;2023-04-15T13:03:49;6.40;;;1.50;;
18793;SDS011;29610;49.022;12.114;2023-04-15T13:06:38;5.17;;;1.30;;
18793;SDS011;29610;49.022;12.114;2023-04-15T13:09:30;4.80;;;1.60;;
18793;SDS011;29610;49.022;12.114;2023-04-15T13:12:19;5.23;;;1.70;;
18793;SDS011;29610;49.022;12.114;2023-04-15T13:15:14;5.30;;;1.53;;
18793;SDS011;29610;49.022;12.114;2023-04-15T13:18:05;5.10;;;1.60;;
18793;SDS011;29610;49.022;12.114;2023-04-15T13:21:03;4.60;;;1.30;;
18793;SDS011;29610;49.022;12.114;2023-04-15T13:23:53;4.63;;;1.30;;
18793;SDS011;29610;49.022;12.114;2023-04-15T13:26:44;5.20;;;1.90;;
18793;SDS011;29610;49.022;12.114;2023-04-15T13:29:36;7.87;;;2.80;;
18793;SDS011;29610;49.022;12.114;2023-04-15T13:32:26;5.53;;;1.83;;
18793;SDS011;29610;49.022;12.114;2023-04-15T13:35:15;6.07;;;2.10;;
18793;SDS011;29610;49.022;12.114;2023-04-15T13:38:04;5.30;;;1.90;;
18793;SDS011;29610;49.022;12.114;2023-04-15T13:40:53;5.57;;;1.60;;
18793;SDS011;29610;49.022;12.114;2023-04-15T13:43:43;5.20;;;1.77;;
18793;SDS011;29610;49.022;12.114;2023-04-15T13:46:39;5.20;;;1.77;;
18793;SDS011;29610;49.022;12.114;2023-04-15T13:49:29;5.40;;;1.97;;
18793;SDS011;29610;49.022;12.114;2023-04-15T13:52:18;5.07;;;1.93;;
18793;SDS011;29610;49.022;12.114;2023-04-15T13:55:07;5.57;;;1.80;;
18793;SDS011;29610;49.022;12.114;2023-04-15T13:58:09;5.90;;;1.70;;
18793;SDS011;29610;49.022;12.114;2023-04-15T14:01:00;6.83;;;2.80;;
18793;SDS011;29610;49.022;12.114;2023-04-15T14:03:53;5.40;;;2.07;;
18793;SDS011;29610;49.022;12.114;2023-04-15T14:06:42;8.50;;;2.40;;
18793;SDS011;29610;49.022;12.114;2023-04-15T14:09:31;5.87;;;2.27;;
18793;SDS011;29610;49.022;12.114;2023-04-15T14:12:21;7.00;;;2.20;;
18793;SDS011;29610;49.022;12.114;2023-04-15T14:15:10;6.37;;;1.90;;
18793;SDS011;29610;49.022;12.114;2023-04-15T14:18:01;6.23;;;2.10;;
18793;SDS011;29610;49.022;12.114;2023-04-15T14:20:50;7.23;;;2.20;;
18793;SDS011;29610;49.022;12.114;2023-04-15T14:23:39;6.47;;;2.00;;
18793;SDS011;29610;49.022;12.114;2023-04-15T14:26:29;6.73;;;2.20;;
18793;SDS011;29610;49.022;12.114;2023-04-15T14:29:18;7.10;;;1.80;;
18793;SDS011;29610;49.022;12.114;2023-04-15T14:32:09;5.57;;;1.63;;
18793;SDS011;29610;49.022;12.114;2023-04-15T14:35:03;7.70;;;1.97;;
18793;SDS011;29610;49.022;12.114;2023-04-15T14:37:59;5.57;;;1.87;;
18793;SDS011;29610;49.022;12.114;2023-04-15T14:40:48;5.70;;;1.57;;
18793;SDS011;29610;49.022;12.114;2023-04-15T14:43:38;5.30;;;1.67;;
18793;SDS011;29610;49.022;12.114;2023-04-15T14:46:30;6.50;;;2.20;;
18793;SDS011;29610;49.022;12.114;2023-04-15T14:49:22;6.00;;;2.07;;
18793;SDS011;29610;49.022;12.114;2023-04-15T14:52:33;12.33;;;2.57;;
18793;SDS011;29610;49.022;12.114;2023-04-15T14:55:41;8.53;;;1.90;;
18793;SDS011;29610;49.022;12.114;2023-04-15T14:58:32;5.97;;;1.87;;
18793;SDS011;29610;49.022;12.114;2023-04-15T15:01:22;7.20;;;2.60;;
18793;SDS011;29610;49.022;12.114;2023-04-15T15:04:11;5.80;;;2.07;;
18793;SDS011;29610;49.022;12.114;2023-04-15T15:07:04;5.60;;;1.80;;
18793;SDS011;29610;49.022;12.114;2023-04-15T15:09:55;6.20;;;2.30;;
18793;SDS011;29610;49.022;12.114;2023-04-15T15:12:44;6.73;;;2.47;;
18793;SDS011;29610;49.022;12.114;2023-04-15T15:15:33;6.10;;;2.10;;
18793;SDS011;29610;49.022;12.114;2023-04-15T15:18:27;7.00;;;2.07;;
18793;SDS011;29610;49.022;12.114;2023-04-15T15:21:17;6.70;;;2.33;;
18793;SDS011;29610;49.022;12.114;2023-04-15T15:24:06;5.97;;;2.27;;
18793;SDS011;29610;49.022;12.114;2023-04-15T15:26:56;6.60;;;2.37;;
18793;SDS011;29610;49.022;12.114;2023-04-15T15:29:48;6.40;;;2.20;;
18793;SDS011;29610;49.022;12.114;2023-04-15T15:32:39;7.60;;;2.40;;
18793;SDS011;29610;49.022;12.114;2023-04-15T15:35:30;6.10;;;2.03;;
18793;SDS011;29610;49.022;12.114;2023-04-15T15:38:19;5.77;;;2.13;;
18793;SDS011;29610;49.022;12.114;2023-04-15T15:41:10;6.13;;;2.37;;
18793;SDS011;29610;49.022;12.114;2023-04-15T15:44:01;5.43;;;1.93;;
18793;SDS011;29610;49.022;12.114;2023-04-15T15:46:50;5.80;;;2.07;;
18793;SDS011;29610;49.022;12.114;2023-04-15T15:49:39;6.00;;;2.30;;
18793;SDS011;29610;49.022;12.114;2023-04-15T15:52:35;5.83;;;2.00;;
18793;SDS011;29610;49.022;12.114;2023-04-15T15:55:24;6.30;;;2.40;;
18793;SDS011;29610;49.022;12.114;2023-04-15T15:58:17;6.80;;;2.20;;
18793;SDS011;29610;49.022;12.114;2023-04-15T16:01:08;5.87;;;1.90;;
18793;SDS011;29610;49.022;12.114;2023-04-15T16:03:57;6.93;;;2.17;;
18793;SDS011;29610;49.022;12.114;2023-04-15T16:06:47;6.23;;;2.10;;
18793;SDS011;29610;49.022;12.114;2023-04-15T16:09:36;6.57;;;1.90;;
18793;SDS011;29610;49.022;12.114;2023-04-15T16:12:26;8.40;;;2.70;;
18793;SDS011;29610;49.022;12.114;2023-04-15T16:15:18;7.17;;;2.33;;
18793;SDS011;29610;49.022;12.114;2023-04-15T16:18:09;6.50;;;2.50;;
18793;SDS011;29610;49.022;12.114;2023-04-15T16:20:59;8.63;;;2.90;;
18793;SDS011;29610;49.022;12.114;2023-04-15T16:23:48;8.40;;;3.10;;
18793;SDS011;29610;49.022;12.114;2023-04-15T16:26:37;8.50;;;2.90;;
18793;SDS011;29610;49.022;12.114;2023-04-15T16:29:27;6.63;;;2.93;;
18793;SDS011;29610;49.022;12.114;2023-04-15T16:32:16;7.20;;;2.90;;
18793;SDS011;29610;49.022;12.114;2023-04-15T16:35:07;7.30;;;3.10;;
18793;SDS011;29610;49.022;12.114;2023-04-15T16:37:57;10.10;;;2.60;;
18793;SDS011;29610;49.022;12.114;2023-04-15T16:40:49;7.10;;;2.60;;
18793;SDS011;29610;49.022;12.114;2023-04-15T16:43:38;6.67;;;2.33;;
18793;SDS011;29610;49.022;12.114;2023-04-15T16:46:27;7.63;;;2.83;;
18793;SDS011;29610;49.022;12.114;2023-04-15T16:49:17;5.90;;;2.03;;
18793;SDS011;29610;49.022;12.114;2023-04-15T16:52:09;6.00;;;2.30;;
18793;SDS011;29610;49.022;12.114;2023-04-15T16:55:02;6.20;;;2.10;;